»·PEaware :: UAL1270 KSFO-KPHX

UAL1270 :: KSFO-KPHX

FLIGHT INFORMATION

Flight Status: Arrived
Operator:
United Airlines
More flights by this operator :: More flights under this callsign
Pilot: Saso K. (7898)
Aircraft: AIRBUS A320
(A320)
More flights by this aircraft type
Origin: KSFO San Francisco Intl
United States
Destination: KPHX Phoenix Sky Harbor Intl
United States
More flights between these airports :: More routes between these airports
Route: +WESLA3 LOSHN BOILE BLH HYDRR1
File this flight plan on PilotEdge
Remarks: EET / KZAK0023 KZLA0027 KZAB0107
Altitude:
(Current/Filed)
37,000ft
Speed:
(Current/Filed)
449kts
Departed: 28-May-17 04:01 PM
Arrived: 28-May-17 05:44 PM
Distance/Time
Traveled:
565nm/1:42
Distance/Time
To Go:
Arrived

Flight Plot

Page will automatically refresh every two minutes.

Flight plan parsing failed; only flown route is shown


Map Options




Map Legend


Flown Route
Filed Route
Departure Airport
Arrival Airport
Navaid (VOR, NDB)
Fix

Horizontal Profiles

Position Reports

Time Latitude Longitude Heading Altitude Ground
Speed
28-May-17 15:20 37.619720 -122.388270 26 32ft 0kts
28-May-17 15:21 37.619720 -122.388270 26 32ft 0kts
28-May-17 15:22 37.619720 -122.388270 26 32ft 0kts
28-May-17 15:23 37.619720 -122.388270 26 32ft 0kts
28-May-17 15:24 37.619720 -122.388270 26 32ft 0kts
28-May-17 15:25 37.619720 -122.388270 26 32ft 0kts
28-May-17 15:26 37.619720 -122.388270 26 32ft 0kts
28-May-17 15:27 37.619720 -122.388270 26 32ft 0kts
28-May-17 15:28 37.619720 -122.388270 26 32ft 0kts
28-May-17 15:29 37.619720 -122.388270 26 32ft 0kts
28-May-17 15:30 37.619720 -122.388270 26 32ft 0kts
28-May-17 15:31 37.619720 -122.388270 26 32ft 0kts
28-May-17 15:32 37.619720 -122.388270 26 32ft 0kts
28-May-17 15:33 37.619720 -122.388270 26 32ft 0kts
28-May-17 15:34 37.619720 -122.388270 26 32ft 0kts
28-May-17 15:35 37.619720 -122.388270 26 32ft 0kts
28-May-17 15:36 37.619720 -122.388270 26 32ft 0kts
28-May-17 15:37 37.619720 -122.388270 26 32ft 0kts
28-May-17 15:38 37.619720 -122.388270 26 32ft 0kts
28-May-17 15:39 37.619720 -122.388270 26 32ft 0kts
28-May-17 15:40 37.619720 -122.388270 26 32ft 0kts
28-May-17 15:41 37.619720 -122.388270 26 32ft 0kts
28-May-17 15:42 37.619720 -122.388270 26 32ft 0kts
28-May-17 15:43 37.619720 -122.388270 26 32ft 0kts
28-May-17 15:44 37.619720 -122.388270 26 32ft 0kts
28-May-17 15:45 37.619720 -122.388270 26 32ft 0kts
28-May-17 15:46 37.619720 -122.388270 26 32ft 0kts
28-May-17 15:47 37.619720 -122.388270 26 32ft 0kts
28-May-17 15:48 37.619416 -122.388494 33 32ft 2kts
28-May-17 15:49 37.618989 -122.388924 45 32ft 0kts
28-May-17 15:50 37.618989 -122.388924 45 32ft 0kts
28-May-17 15:51 37.618989 -122.388924 45 32ft 0kts
28-May-17 15:52 37.619235 -122.389133 291 32ft 6kts
28-May-17 15:53 37.620051 -122.391296 299 32ft 0kts
28-May-17 15:54 37.620051 -122.391296 299 32ft 0kts
28-May-17 15:55 37.620142 -122.391499 299 32ft 6kts
28-May-17 15:56 37.622423 -122.390293 73 31ft 16kts
28-May-17 15:57 37.620783 -122.384709 118 32ft 22kts
28-May-17 15:58 37.618209 -122.378444 109 29ft 20kts
28-May-17 15:59 37.615734 -122.371624 116 14ft 23kts
28-May-17 16:00 37.612611 -122.365312 118 9ft 27kts
28-May-17 16:01 37.610507 -122.359719 70 9ft 9kts
28-May-17 16:02 37.611862 -122.358706 307 9ft 4kts
28-May-17 16:03 37.623549 -122.385317 298 1172ft 166kts
28-May-17 16:04 37.644224 -122.433636 296 3125ft 181kts
28-May-17 16:05 37.667877 -122.496438 268 6089ft 237kts
28-May-17 16:06 37.623753 -122.535597 164 9293ft 275kts
28-May-17 16:07 37.555142 -122.504200 160 12017ft 320kts
28-May-17 16:08 37.478518 -122.457021 132 14377ft 356kts
28-May-17 16:09 37.421153 -122.367863 130 16862ft 373kts
28-May-17 16:10 37.360728 -122.274174 131 19063ft 390kts
28-May-17 16:11 37.297534 -122.176502 131 21040ft 405kts
28-May-17 16:12 37.232441 -122.076190 130 22824ft 420kts
28-May-17 16:13 37.164461 -121.971750 130 24462ft 433kts
28-May-17 16:14 37.094576 -121.864300 131 25979ft 445kts
28-May-17 16:15 37.022113 -121.753243 131 27471ft 454kts
28-May-17 16:16 36.947654 -121.639965 132 28834ft 462kts
28-May-17 16:17 36.871597 -121.524649 131 30152ft 467kts
28-May-17 16:18 36.795399 -121.409525 132 31570ft 469kts
28-May-17 16:19 36.717998 -121.292986 132 32790ft 473kts
28-May-17 16:20 36.640241 -121.176319 131 34030ft 475kts
28-May-17 16:21 36.562329 -121.059823 131 35251ft 474kts
28-May-17 16:22 36.484557 -120.943939 130 36442ft 472kts
28-May-17 16:23 36.409126 -120.830205 131 37011ft 469kts
28-May-17 16:24 36.332754 -120.716111 131 37003ft 469kts
28-May-17 16:25 36.255363 -120.600996 131 37006ft 470kts
28-May-17 16:26 36.178903 -120.487649 131 37004ft 470kts
28-May-17 16:27 36.101508 -120.373301 131 37003ft 470kts
28-May-17 16:28 36.023918 -120.259050 131 37003ft 470kts
28-May-17 16:29 35.946290 -120.145127 131 37003ft 470kts
28-May-17 16:30 35.868255 -120.030991 131 37003ft 470kts
28-May-17 16:31 35.789975 -119.918779 131 37002ft 470kts
28-May-17 16:32 35.712446 -119.807985 132 36986ft 469kts
28-May-17 16:33 35.633334 -119.696032 132 36971ft 469kts
28-May-17 16:34 35.554364 -119.583895 128 36975ft 470kts
28-May-17 16:35 35.479301 -119.466934 131 36993ft 470kts
28-May-17 16:36 35.401311 -119.355074 131 37001ft 469kts
28-May-17 16:37 35.323561 -119.243943 131 37002ft 469kts
28-May-17 16:38 35.245267 -119.132396 131 37001ft 469kts
28-May-17 16:39 35.166677 -119.020790 131 37002ft 470kts
28-May-17 16:40 35.087548 -118.908785 131 37002ft 474kts
28-May-17 16:41 35.009642 -118.798091 132 37084ft 481kts
28-May-17 16:42 34.928208 -118.683551 132 37169ft 485kts
28-May-17 16:43 34.847310 -118.570148 132 37182ft 484kts
28-May-17 16:44 34.765449 -118.455774 132 37093ft 481kts
28-May-17 16:45 34.688831 -118.349067 132 37034ft 480kts
28-May-17 16:46 34.609015 -118.238251 132 37011ft 479kts
28-May-17 16:47 34.528081 -118.126241 132 37011ft 478kts
28-May-17 16:48 34.447716 -118.015373 132 37018ft 478kts
28-May-17 16:49 34.389305 -117.888530 106 37036ft 483kts
28-May-17 16:50 34.357552 -117.753585 106 37037ft 482kts
28-May-17 16:51 34.323192 -117.611155 106 37010ft 481kts
28-May-17 16:52 34.288945 -117.469972 106 37009ft 481kts
28-May-17 16:53 34.254313 -117.327988 106 37019ft 482kts
28-May-17 16:54 34.219186 -117.184771 106 37026ft 482kts
28-May-17 16:55 34.184415 -117.043787 106 37021ft 483kts
28-May-17 16:56 34.149178 -116.901689 105 36992ft 487kts
28-May-17 16:57 34.113724 -116.757786 106 36938ft 490kts
28-May-17 16:58 34.076882 -116.610856 106 36898ft 492kts
28-May-17 16:59 34.040053 -116.464792 106 36916ft 492kts
28-May-17 17:00 34.003004 -116.318670 106 36934ft 492kts
28-May-17 17:01 33.965547 -116.171877 106 36919ft 492kts
28-May-17 17:02 33.927847 -116.024657 106 36859ft 492kts
28-May-17 17:03 33.890491 -115.879557 107 36839ft 491kts
28-May-17 17:04 33.853246 -115.734416 107 36829ft 490kts
28-May-17 17:05 33.815350 -115.588992 107 36824ft 490kts
28-May-17 17:06 33.777303 -115.443770 107 36828ft 490kts
28-May-17 17:07 33.738757 -115.297422 107 36858ft 491kts
28-May-17 17:08 33.700179 -115.151741 107 36879ft 491kts
28-May-17 17:09 33.661559 -115.006673 106 34954ft 491kts
28-May-17 17:10 33.623220 -114.862799 106 32073ft 502kts
28-May-17 17:11 33.587020 -114.714108 101 29493ft 500kts
28-May-17 17:12 33.557947 -114.564679 100 27737ft 483kts
28-May-17 17:13 33.530137 -114.422849 100 26185ft 453kts
28-May-17 17:14 33.503955 -114.290110 100 24753ft 426kts
28-May-17 17:15 33.478639 -114.162458 100 23415ft 415kts
28-May-17 17:16 33.453748 -114.037815 100 22879ft 411kts
28-May-17 17:17 33.429154 -113.915620 100 22857ft 410kts
28-May-17 17:18 33.404995 -113.793738 101 22425ft 409kts
28-May-17 17:19 33.380170 -113.671096 101 22217ft 406kts
28-May-17 17:20 33.355291 -113.548955 100 22029ft 404kts
28-May-17 17:21 33.331442 -113.427198 98 21604ft 396kts
28-May-17 17:22 33.310622 -113.306912 98 20657ft 394kts
28-May-17 17:23 33.294109 -113.208280 96 19819ft 384kts
28-May-17 17:24 33.275350 -113.076129 93 18073ft 354kts
28-May-17 17:25 33.276273 -112.985906 86 16897ft 352kts
28-May-17 17:26 33.279516 -112.860110 88 16693ft 348kts
28-May-17 17:27 33.285226 -112.773109 84 16602ft 337kts
28-May-17 17:28 33.294786 -112.670934 84 15354ft 328kts
28-May-17 17:29 33.305561 -112.554732 84 14085ft 321kts
28-May-17 17:30 33.313031 -112.473489 83 13201ft 316kts
28-May-17 17:31 33.321788 -112.377469 83 12158ft 310kts
28-May-17 17:32 33.331726 -112.268102 83 10562ft 300kts
28-May-17 17:33 33.338555 -112.192429 83 9510ft 291kts
28-May-17 17:34 33.346018 -112.109093 83 9058ft 256kts
28-May-17 17:35 33.346697 -112.032771 90 8158ft 249kts
28-May-17 17:36 33.345725 -111.958673 90 7273ft 243kts
28-May-17 17:37 33.345227 -111.886155 90 6298ft 244kts
28-May-17 17:38 33.345597 -111.815612 90 5416ft 241kts
28-May-17 17:39 33.348987 -111.746312 59 5047ft 217kts
28-May-17 17:40 33.395757 -111.732908 326 4868ft 199kts
28-May-17 17:41 33.418719 -111.785339 290 4193ft 196kts
28-May-17 17:42 33.437225 -111.841553 291 3636ft 203kts
28-May-17 17:43 33.440786 -111.895483 270 2736ft 167kts
28-May-17 17:44 33.440793 -111.938862 270 2030ft 133kts
28-May-17 17:45 33.440787 -111.978897 270 1392ft 136kts
28-May-17 17:46 33.440851 -112.009238 269 1128ft 35kts
28-May-17 17:47 33.439971 -112.010883 169 1128ft 0kts
28-May-17 17:48 33.439676 -112.010987 235 1128ft 2kts
28-May-17 17:49 33.439001 -112.009824 90 1128ft 11kts
28-May-17 17:50 33.438997 -112.005558 90 1131ft 12kts
28-May-17 17:51 33.439039 -112.001483 90 1131ft 12kts
28-May-17 17:52 33.438558 -111.998273 178 1135ft 6kts
28-May-17 17:53 33.436593 -111.998405 236 1131ft 4kts
28-May-17 17:54 33.436550 -111.998771 269 1131ft 0kts
28-May-17 17:55 33.436550 -111.998771 269 1131ft 0kts
28-May-17 17:56 33.436550 -111.998771 269 1131ft 0kts
28-May-17 17:57 33.436550 -111.998771 269 1131ft 0kts

Navigation Log

Ident Type
Flight plan parsing failed, navigation log unavailable